Time;durP1;ratioP1;P1;durP2;ratioP2;P2;SDS_P1;SDS_P2;PMS_P1;PMS_P2;Temp;Humidity;BMP_temperature;BMP_pressure;BME280_temperature;BME280_humidity;BME280_pressure;Samples;Min_cycle;Max_cycle;Signal;HPM_P1;HPM_P2
2021/05/30 00:01:52;;;;;;;9.65;5.93;;;;;;;13.96;65.53;102710.34;5047790;28;20044;-49
2021/05/30 00:04:20;;;;;;;10.55;5.95;;;;;;;13.89;65.27;102698.69;5073747;28;20083;-48
2021/05/30 00:06:48;;;;;;;10.68;6.47;;;;;;;13.79;65.61;102706.72;5072912;28;20041;-48
2021/05/30 00:09:16;;;;;;;8.65;5.65;;;;;;;13.61;66.24;102710.44;5073375;28;20441;-48
2021/05/30 00:11:43;;;;;;;9.20;6.18;;;;;;;13.57;66.45;102707.38;5073253;28;20049;-49
2021/05/30 00:14:18;;;;;;;9.40;5.97;;;;;;;13.61;65.87;102711.31;5073333;28;20052;-49
2021/05/30 00:16:46;;;;;;;8.80;5.70;;;;;;;13.57;66.07;102709.28;5073175;28;20048;-48
2021/05/30 00:19:14;;;;;;;10.00;6.07;;;;;;;13.44;66.30;102713.09;5045513;28;20040;-48
2021/05/30 00:21:42;;;;;;;10.85;6.05;;;;;;;13.37;66.93;102705.03;5071791;28;20082;-48
2021/05/30 00:24:10;;;;;;;11.07;6.53;;;;;;;13.48;66.01;102705.25;5072956;28;20037;-50
2021/05/30 00:26:38;;;;;;;10.15;6.30;;;;;;;13.45;66.27;102714.78;5073321;28;20041;-49
2021/05/30 00:29:05;;;;;;;10.18;6.15;;;;;;;13.35;66.85;102703.63;5073114;28;20052;-49
2021/05/30 00:31:33;;;;;;;9.73;5.97;;;;;;;13.43;66.20;102705.97;5073134;28;20048;-48
2021/05/30 00:34:01;;;;;;;9.95;6.15;;;;;;;13.40;66.35;102707.28;5072824;28;20556;-48
2021/05/30 00:36:29;;;;;;;9.68;6.00;;;;;;;13.29;66.61;102710.03;5072226;28;20063;-53
2021/05/30 00:38:57;;;;;;;8.30;5.35;;;;;;;13.07;67.29;102709.78;5072330;28;20082;-49
2021/05/30 00:41:25;;;;;;;10.68;6.57;;;;;;;12.94;67.91;102702.63;5072886;28;20063;-50
2021/05/30 00:43:54;;;;;;;9.25;5.97;;;;;;;12.73;68.64;102706.81;5072897;28;20087;-50
2021/05/30 00:46:22;;;;;;;11.23;6.30;;;;;;;12.68;68.46;102712.97;5072620;28;20045;-49
2021/05/30 00:48:51;;;;;;;9.35;5.80;;;;;;;12.60;68.48;102713.31;5072410;28;20044;-49
2021/05/30 00:51:18;;;;;;;12.48;6.32;;;;;;;12.68;69.12;102703.94;5072413;28;20511;-49
2021/05/30 00:53:46;;;;;;;12.52;6.47;;;;;;;12.88;68.37;102709.91;5072856;28;20068;-48
2021/05/30 00:56:15;;;;;;;9.30;6.03;;;;;;;13.02;67.13;102710.50;5072813;28;20050;-50
2021/05/30 00:58:43;;;;;;;9.77;6.22;;;;;;;13.09;66.72;102708.47;5073125;28;20491;-48
2021/05/30 01:01:11;;;;;;;8.85;6.00;;;;;;;13.06;66.26;102711.69;5071716;28;20040;-53
2021/05/30 01:03:39;;;;;;;9.65;6.53;;;;;;;13.02;66.94;102705.03;5072526;28;20047;-51
2021/05/30 01:06:09;;;;;;;9.32;6.22;;;;;;;12.95;66.62;102715.25;5072472;28;20437;-48
2021/05/30 01:08:37;;;;;;;9.90;6.53;;;;;;;12.91;67.14;102714.06;5059614;28;20070;-52
2021/05/30 01:11:06;;;;;;;10.73;6.57;;;;;;;12.88;67.17;102717.28;5072272;28;20040;-48
2021/05/30 01:13:34;;;;;;;8.88;6.15;;;;;;;12.75;67.47;102716.44;5071023;28;20033;-50
2021/05/30 01:16:02;;;;;;;8.18;5.38;;;;;;;12.71;67.83;102715.25;5071091;28;20056;-49
2021/05/30 01:18:30;;;;;;;9.23;6.60;;;;;;;12.72;67.35;102716.91;5072051;28;20064;-49
2021/05/30 01:20:57;;;;;;;9.38;6.15;;;;;;;12.54;67.59;102714.25;5047729;28;20065;-49
2021/05/30 01:23:25;;;;;;;10.13;6.45;;;;;;;12.55;68.41;102716.78;5057532;28;20086;-49
2021/05/30 01:25:53;;;;;;;12.10;6.60;;;;;;;12.68;67.16;102712.97;5072026;28;20040;-49
2021/05/30 01:28:20;;;;;;;9.15;6.40;;;;;;;12.74;67.26;102719.41;5072483;28;20041;-49
2021/05/30 01:30:48;;;;;;;7.93;5.47;;;;;;;12.84;67.49;102713.34;5072099;28;20440;-49
2021/05/30 01:33:16;;;;;;;10.02;6.35;;;;;;;12.87;66.26;102715.59;5071768;28;20456;-49
2021/05/30 01:35:44;;;;;;;9.75;6.13;;;;;;;12.76;66.45;102712.63;5071848;28;20037;-48
2021/05/30 01:38:13;;;;;;;9.98;6.70;;;;;;;12.79;66.83;102712.16;5072121;28;20044;-47
2021/05/30 01:40:41;;;;;;;12.45;6.95;;;;;;;12.84;66.55;102707.88;5071722;28;20040;-48
2021/05/30 01:43:09;;;;;;;12.82;7.00;;;;;;;12.76;66.12;102711.78;5072243;28;20098;-49
2021/05/30 01:45:38;;;;;;;10.45;7.00;;;;;;;12.69;66.75;102703.69;5072234;28;20037;-50
2021/05/30 01:48:07;;;;;;;10.80;7.15;;;;;;;12.70;66.33;102705.38;5073844;28;20040;-49
2021/05/30 01:50:35;;;;;;;13.95;7.68;;;;;;;12.61;66.71;102703.22;5078872;28;20048;-49
2021/05/30 01:53:09;;;;;;;10.82;6.90;;;;;;;12.47;67.31;102702.59;5078184;28;20063;-48
2021/05/30 01:56:54;;;;;;;12.18;7.40;;;;;;;12.31;67.55;102698.63;5078730;28;20098;-48
2021/05/30 01:58:40;;;;;;;9.80;7.25;;;;;;;12.28;67.47;102702.66;5055228;28;20098;-46
2021/05/30 02:01:12;;;;;;;13.63;7.65;;;;;;;12.28;67.43;102699.09;5078015;28;20040;-50
2021/05/30 02:03:41;;;;;;;11.07;7.28;;;;;;;12.18;67.27;102691.47;5078916;28;20033;-47
2021/05/30 02:06:09;;;;;;;10.77;7.53;;;;;;;12.12;68.20;102697.84;5077369;28;20057;-48
2021/05/30 02:08:39;;;;;;;17.58;7.75;;;;;;;12.08;67.99;102688.47;5077398;28;20040;-49
2021/05/30 02:11:12;;;;;;;11.32;7.78;;;;;;;12.10;67.88;102694.53;5093907;28;20067;-49
2021/05/30 02:13:40;;;;;;;10.80;7.57;;;;;;;12.24;67.10;102689.69;5078661;28;20052;-49
2021/05/30 02:16:08;;;;;;;11.48;7.93;;;;;;;12.29;66.64;102698.03;5077869;28;20494;-50
2021/05/30 02:18:36;;;;;;;10.15;7.40;;;;;;;12.22;66.70;102691.81;5078255;28;20494;-49
2021/05/30 02:21:04;;;;;;;10.55;7.85;;;;;;;12.02;67.18;102700.31;5078495;28;20045;-49
2021/05/30 02:23:32;;;;;;;11.85;8.13;;;;;;;11.91;67.78;102694.56;5077070;28;20040;-48
2021/05/30 02:26:02;;;;;;;12.85;8.13;;;;;;;11.84;67.40;102693.78;5077993;28;20114;-48
2021/05/30 02:28:30;;;;;;;10.93;7.55;;;;;;;11.80;67.79;102687.13;5078260;28;20418;-48
2021/05/30 02:31:03;;;;;;;9.45;7.28;;;;;;;11.66;68.28;102699.28;5077664;28;20417;-49
2021/05/30 02:33:32;;;;;;;12.05;8.05;;;;;;;11.70;68.34;102697.75;5078315;28;20044;-49
2021/05/30 02:36:00;;;;;;;10.48;7.82;;;;;;;11.80;67.94;102703.50;5078190;28;20051;-53
2021/05/30 02:38:28;;;;;;;12.15;8.57;;;;;;;11.68;68.00;102697.16;5078136;28;20071;-50
2021/05/30 02:40:56;;;;;;;10.63;8.10;;;;;;;11.68;67.93;102697.16;5078168;28;20119;-51
2021/05/30 02:43:23;;;;;;;11.63;8.48;;;;;;;11.67;67.88;102699.06;5062481;28;20564;-53
2021/05/30 02:45:51;;;;;;;11.30;7.70;;;;;;;11.62;67.79;102695.34;5057796;28;20080;-49
2021/05/30 02:48:18;;;;;;;12.00;8.23;;;;;;;11.69;67.75;102696.94;5057963;28;20068;-50
2021/05/30 02:50:58;;;;;;;11.32;8.32;;;;;;;11.83;67.83;102703.03;5057942;28;20087;-47
2021/05/30 02:53:27;;;;;;;12.75;8.75;;;;;;;11.84;66.50;102699.25;5057607;28;20103;-48
2021/05/30 02:55:56;;;;;;;12.90;8.80;;;;;;;11.88;66.69;102686.84;5058104;28;20072;-49
2021/05/30 02:58:25;;;;;;;12.85;8.80;;;;;;;11.81;66.02;102694.28;5057939;28;20087;-47
2021/05/30 03:00:52;;;;;;;12.77;9.35;;;;;;;11.69;66.69;102693.38;5053520;28;20068;-48
2021/05/30 03:03:37;;;;;;;13.90;8.52;;;;;;;11.59;67.46;102701.25;5054831;28;20086;-49
2021/05/30 03:06:04;;;;;;;12.48;8.73;;;;;;;11.60;67.47;102697.47;5054918;28;20049;-48
2021/05/30 03:08:32;;;;;;;11.32;8.63;;;;;;;11.54;67.34;102692.91;5041022;28;20095;-51
2021/05/30 03:11:00;;;;;;;14.32;9.23;;;;;;;11.45;67.54;102701.44;5054619;28;20045;-48
2021/05/30 03:13:27;;;;;;;13.88;9.30;;;;;;;11.38;67.94;102695.22;5054248;28;20099;-50
2021/05/30 03:15:57;;;;;;;14.75;9.68;;;;;;;11.41;68.05;102705.66;5054621;28;20091;-48
2021/05/30 03:18:24;;;;;;;13.40;8.98;;;;;;;11.47;67.44;102710.22;5054077;28;20147;-49
2021/05/30 03:20:52;;;;;;;14.80;9.68;;;;;;;11.40;66.81;102711.34;5069690;28;20113;-49
2021/05/30 03:23:20;;;;;;;12.38;9.27;;;;;;;11.24;67.71;102707.34;5054354;28;20045;-46
2021/05/30 03:25:48;;;;;;;12.25;9.05;;;;;;;11.26;68.10;102702.47;5054618;28;20041;-48
2021/05/30 03:28:15;;;;;;;15.10;9.85;;;;;;;11.42;67.49;102701.03;5053697;28;20052;-52
2021/05/30 03:30:43;;;;;;;14.00;10.02;;;;;;;11.41;67.49;102705.66;5054388;28;20107;-48
2021/05/30 03:33:11;;;;;;;12.80;9.60;;;;;;;11.20;67.64;102706.09;5054129;28;20096;-50
2021/05/30 03:35:38;;;;;;;13.35;9.48;;;;;;;11.12;67.68;102700.94;5054174;28;20492;-51
2021/05/30 03:38:07;;;;;;;13.27;9.07;;;;;;;11.18;68.26;102708.22;5054122;28;20067;-52
2021/05/30 03:43:09;;;;;;;17.27;9.98;;;;;;;11.18;67.04;102706.31;5053859;28;20158;-51
2021/05/30 03:45:36;;;;;;;13.75;9.82;;;;;;;11.09;67.92;102708.53;5053763;28;20462;-50
2021/05/30 03:48:05;;;;;;;15.20;9.18;;;;;;;11.13;68.08;102708.06;5054180;28;20080;-52
2021/05/30 03:50:33;;;;;;;14.80;10.13;;;;;;;11.06;67.69;102708.97;5053753;28;20076;-51
2021/05/30 03:53:02;;;;;;;13.35;9.18;;;;;;;11.12;68.31;102709.13;5053956;28;20052;-51
2021/05/30 03:55:29;;;;;;;14.20;10.07;;;;;;;11.20;67.58;102715.13;5053973;28;20052;-46
2021/05/30 03:57:57;;;;;;;13.88;9.82;;;;;;;11.23;67.45;102713.84;5053193;28;20399;-48
2021/05/30 04:00:25;;;;;;;12.27;8.23;;;;;;;11.21;67.74;102715.97;5069017;28;20091;-48
2021/05/30 04:02:53;;;;;;;13.05;9.30;;;;;;;11.24;67.27;102713.63;5052287;28;20457;-48
2021/05/30 04:05:20;;;;;;;13.38;9.65;;;;;;;11.18;67.02;102710.94;5052415;28;20399;-49
2021/05/30 04:07:48;;;;;;;12.48;9.30;;;;;;;11.03;67.24;102714.88;5053240;28;20045;-49
2021/05/30 04:10:15;;;;;;;15.65;9.98;;;;;;;10.94;67.59;102708.03;5053109;28;20077;-49
2021/05/30 04:12:43;;;;;;;14.30;9.68;;;;;;;11.00;68.37;102715.31;5052238;28;20053;-49
2021/05/30 04:15:12;;;;;;;13.90;9.35;;;;;;;10.99;67.30;102713.66;5048737;28;20041;-48
2021/05/30 04:17:41;;;;;;;14.40;9.73;;;;;;;10.96;67.67;102708.63;5047497;28;20067;-50
2021/05/30 04:20:12;;;;;;;12.07;9.13;;;;;;;10.83;68.30;102708.78;5053579;28;20128;-50
2021/05/30 04:22:40;;;;;;;16.85;10.02;;;;;;;10.78;68.56;102705.88;5053446;28;20099;-49
2021/05/30 04:25:10;;;;;;;16.25;10.40;;;;;;;10.74;68.29;102704.66;5053165;28;20086;-50
2021/05/30 04:27:41;;;;;;;16.38;9.85;;;;;;;10.68;68.90;102710.97;5052714;28;20128;-49
2021/05/30 04:30:14;;;;;;;12.75;8.88;;;;;;;10.64;69.00;102710.59;5053305;28;20084;-49
2021/05/30 04:32:42;;;;;;;16.17;10.30;;;;;;;10.75;68.45;102709.03;5068459;28;20044;-49
2021/05/30 04:35:11;;;;;;;12.48;9.23;;;;;;;10.81;68.56;102702.69;5053152;28;20033;-51
2021/05/30 04:37:38;;;;;;;15.05;9.40;;;;;;;10.91;68.29;102708.47;5052827;28;20041;-49
2021/05/30 04:40:08;;;;;;;15.45;9.30;;;;;;;10.95;67.78;102711.59;5052504;28;20041;-49
2021/05/30 04:42:36;;;;;;;12.18;8.32;;;;;;;10.95;68.01;102706.97;5052588;28;20045;-49
2021/05/30 04:45:05;;;;;;;14.20;9.52;;;;;;;10.98;67.68;102709.25;5052897;28;20080;-48
2021/05/30 04:47:33;;;;;;;12.50;8.45;;;;;;;11.01;68.20;102716.97;5068359;28;20116;-49
2021/05/30 04:50:03;;;;;;;15.15;9.55;;;;;;;11.11;68.08;102710.19;5052779;28;20072;-51
2021/05/30 04:52:31;;;;;;;13.02;8.27;;;;;;;11.12;68.06;102709.13;5052520;28;20079;-49
2021/05/30 04:54:59;;;;;;;15.20;10.23;;;;;;;11.14;67.31;102720.66;5052386;28;20045;-47
2021/05/30 04:57:26;;;;;;;15.25;9.88;;;;;;;11.13;67.25;102713.53;5052456;28;20079;-47
2021/05/30 04:59:54;;;;;;;15.63;9.65;;;;;;;11.16;67.55;102718.53;5052645;28;20098;-45
2021/05/30 05:02:21;;;;;;;14.43;9.52;;;;;;;11.14;67.59;102720.66;5052871;28;20128;-46
2021/05/30 05:04:49;;;;;;;13.60;9.27;;;;;;;11.01;67.75;102724.34;5038624;28;20464;-51
2021/05/30 05:07:17;;;;;;;13.43;9.93;;;;;;;11.00;68.22;102726.22;5052554;28;20049;-51
2021/05/30 05:09:44;;;;;;;14.15;9.43;;;;;;;10.82;68.85;102723.44;5051664;28;20076;-50
2021/05/30 05:12:12;;;;;;;14.75;9.85;;;;;;;10.75;69.29;102722.66;5052398;28;20450;-50
2021/05/30 05:14:40;;;;;;;13.25;9.15;;;;;;;10.85;69.43;102734.75;5052167;28;20045;-49
2021/05/30 05:17:08;;;;;;;15.75;9.70;;;;;;;10.98;68.49;102722.88;5052676;28;20065;-48
2021/05/30 05:19:36;;;;;;;14.77;10.73;;;;;;;11.04;68.33;102724.72;5052309;28;20098;-49
2021/05/30 05:22:04;;;;;;;14.70;10.07;;;;;;;11.07;68.96;102729.72;5051671;28;20068;-51
2021/05/30 05:24:51;;;;;;;15.57;9.82;;;;;;;11.12;68.50;102722.78;5051690;28;20067;-52
2021/05/30 05:27:19;;;;;;;12.13;9.20;;;;;;;11.20;68.77;102725.19;5052317;28;20053;-49
2021/05/30 05:29:46;;;;;;;12.55;9.57;;;;;;;11.23;68.30;102728.34;5052167;28;20057;-50
2021/05/30 05:32:14;;;;;;;16.38;10.70;;;;;;;11.30;67.89;102725.50;5052064;28;20076;-49
2021/05/30 05:34:42;;;;;;;15.27;10.80;;;;;;;11.27;68.06;102729.53;5052123;28;20051;-49
2021/05/30 05:37:09;;;;;;;18.40;10.85;;;;;;;11.18;68.25;102732.78;5049854;28;20037;-46
2021/05/30 05:39:37;;;;;;;15.80;10.60;;;;;;;11.17;68.25;102725.66;5051150;28;20197;-49
2021/05/30 05:42:05;;;;;;;15.18;11.07;;;;;;;11.26;68.41;102724.31;5051606;28;20098;-48
2021/05/30 05:44:33;;;;;;;16.52;10.50;;;;;;;11.27;68.15;102728.69;5051818;28;20083;-50
2021/05/30 05:47:04;;;;;;;15.00;10.60;;;;;;;11.20;68.50;102725.19;5051682;28;20488;-49
2021/05/30 05:49:33;;;;;;;15.63;11.27;;;;;;;11.22;68.58;102723.09;5051723;28;20052;-52
2021/05/30 05:52:01;;;;;;;15.88;10.68;;;;;;;11.26;68.19;102729.78;5051595;28;20044;-49
2021/05/30 05:54:46;;;;;;;13.27;9.90;;;;;;;11.34;68.84;102726.72;5051648;28;20048;-49
2021/05/30 05:57:14;;;;;;;15.60;10.43;;;;;;;11.34;68.54;102721.28;5051733;28;20057;-48
2021/05/30 05:59:41;;;;;;;16.35;11.95;;;;;;;11.29;68.68;102729.31;5051878;28;20087;-48
2021/05/30 06:02:09;;;;;;;16.33;11.93;;;;;;;11.24;69.67;102723.69;5051494;28;20076;-50
2021/05/30 06:04:36;;;;;;;15.93;11.68;;;;;;;11.24;69.52;102727.25;5051736;28;20499;-50
2021/05/30 06:07:05;;;;;;;16.15;11.88;;;;;;;11.36;69.30;102731.97;5051606;28;20118;-49
2021/05/30 06:09:32;;;;;;;17.95;13.38;;;;;;;11.42;70.05;102731.88;5066510;28;20432;-49
2021/05/30 06:12:00;;;;;;;16.33;10.88;;;;;;;11.46;69.75;102735.00;5051695;28;20080;-49
2021/05/30 06:14:28;;;;;;;17.08;11.68;;;;;;;11.55;68.66;102728.19;5051352;28;20053;-50
2021/05/30 06:16:56;;;;;;;16.58;12.43;;;;;;;11.60;69.18;102735.69;5051391;28;20065;-51
2021/05/30 06:19:25;;;;;;;19.08;12.27;;;;;;;11.62;69.34;102741.78;5051552;28;20116;-49
2021/05/30 06:21:57;;;;;;;16.40;11.90;;;;;;;11.69;69.39;102737.06;5038454;28;20038;-52
2021/05/30 06:24:26;;;;;;;18.10;11.50;;;;;;;11.80;68.65;102738.19;5051388;28;20045;-48
2021/05/30 06:26:55;;;;;;;16.17;12.13;;;;;;;11.90;68.10;102741.22;5051282;28;20091;-51
2021/05/30 06:29:22;;;;;;;18.00;13.80;;;;;;;11.92;68.45;102734.47;5051531;28;20392;-49
2021/05/30 06:31:51;;;;;;;14.82;11.05;;;;;;;11.88;68.77;102733.28;5051506;28;20036;-48
2021/05/30 06:34:24;;;;;;;15.57;11.73;;;;;;;11.91;68.23;102737.44;5052344;28;20419;-48
2021/05/30 06:36:52;;;;;;;19.13;12.98;;;;;;;11.90;69.42;102742.06;5054862;28;20033;-49
2021/05/30 06:39:21;;;;;;;18.25;12.88;;;;;;;11.88;69.68;102738.75;5055077;28;20041;-52
2021/05/30 06:41:49;;;;;;;17.55;13.45;;;;;;;11.92;68.75;102734.47;5055318;28;20560;-54
2021/05/30 06:44:18;;;;;;;17.38;12.57;;;;;;;11.89;68.97;102734.13;5055152;28;20041;-53
2021/05/30 06:46:46;;;;;;;18.90;13.20;;;;;;;11.94;69.48;102726.88;5054983;28;20418;-51
2021/05/30 06:49:14;;;;;;;21.50;14.25;;;;;;;12.01;69.53;102735.00;5055765;28;20044;-50
2021/05/30 06:51:43;;;;;;;20.90;13.95;;;;;;;12.00;69.75;102733.34;5054687;28;20049;-55
2021/05/30 06:54:10;;;;;;;17.23;11.85;;;;;;;12.09;69.11;102733.84;5054861;28;20099;-51
2021/05/30 06:56:38;;;;;;;19.50;13.20;;;;;;;12.16;69.04;102740.06;5054790;28;20099;-49
2021/05/30 06:59:06;;;;;;;19.92;14.70;;;;;;;12.14;69.35;102745.72;5054380;28;20045;-50
2021/05/30 07:01:33;;;;;;;19.15;14.52;;;;;;;12.17;69.11;102744.47;5054788;28;20495;-49
2021/05/30 07:04:01;;;;;;;18.77;13.05;;;;;;;12.22;69.38;102733.66;5054922;28;20052;-50
2021/05/30 07:06:29;;;;;;;19.27;13.30;;;;;;;12.28;68.88;102738.19;5053693;28;20045;-49
2021/05/30 07:08:58;;;;;;;19.73;13.98;;;;;;;12.36;68.98;102737.88;5053872;28;20041;-49
2021/05/30 07:11:26;;;;;;;19.08;13.85;;;;;;;12.44;67.90;102730.41;5054438;28;20530;-50
2021/05/30 07:13:53;;;;;;;17.65;11.93;;;;;;;12.50;68.09;102721.25;5054390;28;20069;-51
2021/05/30 07:16:21;;;;;;;18.85;14.07;;;;;;;12.55;68.44;102732.31;5054455;28;20041;-49
2021/05/30 07:18:50;;;;;;;26.58;14.40;;;;;;;12.56;68.56;102723.91;5054487;28;20037;-49
2021/05/30 07:21:18;;;;;;;21.92;14.82;;;;;;;12.61;68.14;102725.94;4347388;28;10000231;-49
2021/05/30 07:23:45;;;;;;;18.88;14.80;;;;;;;12.65;68.53;102729.88;5052066;28;20041;-50
2021/05/30 07:26:14;;;;;;;19.75;15.05;;;;;;;12.67;68.36;102724.97;5052104;28;20041;-49
2021/05/30 07:28:44;;;;;;;21.77;16.73;;;;;;;12.71;68.09;102726.19;5052235;28;20041;-50
2021/05/30 07:31:12;;;;;;;24.60;16.95;;;;;;;12.77;68.01;102727.97;5051952;28;20041;-50
2021/05/30 07:33:40;;;;;;;21.02;16.23;;;;;;;12.83;68.02;102730.84;5051853;28;20507;-52
2021/05/30 07:36:08;;;;;;;25.08;17.05;;;;;;;12.87;67.85;102734.75;5046942;28;20076;-50
2021/05/30 07:38:36;;;;;;;23.83;16.63;;;;;;;12.90;67.74;102734.28;5051717;28;20110;-49
2021/05/30 07:41:04;;;;;;;24.08;18.02;;;;;;;12.95;68.13;102731.69;5053262;28;20064;-48
2021/05/30 07:43:32;;;;;;;28.00;18.00;;;;;;;13.04;67.86;102733.00;5054144;28;20037;-49
2021/05/30 07:45:59;;;;;;;22.13;14.52;;;;;;;13.11;67.13;102739.19;5053589;28;20041;-49
2021/05/30 07:48:27;;;;;;;17.90;11.90;;;;;;;13.13;66.85;102731.56;5053923;28;20491;-48
2021/05/30 07:50:55;;;;;;;24.33;16.30;;;;;;;13.16;67.11;102738.47;5051983;28;20088;-49
2021/05/30 07:53:22;;;;;;;23.35;15.00;;;;;;;13.19;66.35;102741.56;5053640;28;20499;-49
2021/05/30 07:55:50;;;;;;;21.42;15.13;;;;;;;13.25;66.90;102738.94;5053783;28;20052;-50
2021/05/30 07:58:18;;;;;;;20.48;14.90;;;;;;;13.33;67.48;102738.63;5053560;28;20119;-50
2021/05/30 08:00:46;;;;;;;23.35;15.65;;;;;;;13.41;66.71;102743.72;5053383;28;20067;-50
2021/05/30 08:03:13;;;;;;;18.45;12.85;;;;;;;13.48;66.33;102747.16;5053622;28;20041;-49
2021/05/30 08:05:41;;;;;;;18.85;13.00;;;;;;;13.51;64.98;102738.44;5053316;28;20049;-49
2021/05/30 08:08:09;;;;;;;17.80;13.00;;;;;;;13.54;64.98;102743.47;5053477;28;20063;-50
2021/05/30 08:10:36;;;;;;;20.23;15.05;;;;;;;13.60;64.85;102742.50;5053221;28;20049;-50
2021/05/30 08:13:04;;;;;;;19.83;13.15;;;;;;;13.73;63.51;102744.13;5053212;28;20111;-50
2021/05/30 08:15:32;;;;;;;15.40;10.23;;;;;;;13.80;63.95;102738.50;5049164;28;20033;-49
2021/05/30 08:17:59;;;;;;;19.90;13.35;;;;;;;13.84;63.34;102746.00;5049875;28;20111;-49
2021/05/30 08:20:29;;;;;;;18.50;12.30;;;;;;;13.92;63.80;102743.97;5053362;28;20033;-51
2021/05/30 08:22:57;;;;;;;20.58;11.48;;;;;;;13.97;63.34;102733.91;5052958;28;20041;-49
2021/05/30 08:25:25;;;;;;;19.33;12.23;;;;;;;14.02;63.57;102734.03;5053534;28;20041;-49
2021/05/30 08:27:53;;;;;;;15.75;11.60;;;;;;;14.06;62.78;102731.63;5052963;28;20368;-47
2021/05/30 08:30:21;;;;;;;15.48;11.85;;;;;;;14.07;63.55;102734.13;5039175;28;20045;-50
2021/05/30 08:32:54;;;;;;;20.55;13.00;;;;;;;14.12;63.19;102732.56;5052656;28;20060;-51
2021/05/30 08:35:22;;;;;;;19.02;12.30;;;;;;;14.18;62.77;102734.31;5052799;28;20529;-50
2021/05/30 08:37:49;;;;;;;14.85;11.00;;;;;;;14.22;62.73;102728.09;5052923;28;20064;-50
2021/05/30 08:40:17;;;;;;;17.60;11.35;;;;;;;14.22;62.77;102724.53;5052570;28;20511;-50
2021/05/30 08:42:46;;;;;;;18.05;12.27;;;;;;;14.26;62.30;102725.69;5053039;28;20057;-49
2021/05/30 08:45:16;;;;;;;16.77;12.02;;;;;;;14.33;62.34;102723.63;5051812;28;20048;-50
2021/05/30 08:47:45;;;;;;;16.95;10.40;;;;;;;14.41;62.32;102727.91;5051161;28;20125;-50
2021/05/30 08:50:13;;;;;;;15.60;11.02;;;;;;;14.45;62.23;102727.13;5052401;28;20072;-50
2021/05/30 08:52:41;;;;;;;13.98;10.35;;;;;;;14.48;61.38;102723.91;5052388;28;20059;-52
2021/05/30 08:55:10;;;;;;;14.27;9.32;;;;;;;14.51;59.88;102711.63;5052649;28;20115;-47
2021/05/30 08:57:39;;;;;;;15.00;9.13;;;;;;;14.60;59.46;102720.28;5051967;28;20056;-52
2021/05/30 09:00:10;;;;;;;15.73;9.90;;;;;;;14.64;59.40;102718.72;5048030;28;20156;-53
2021/05/30 09:02:38;;;;;;;15.07;8.45;;;;;;;14.67;57.91;102712.72;5046484;28;20049;-50
2021/05/30 09:05:11;;;;;;;17.17;8.98;;;;;;;14.77;58.35;102710.16;5052312;28;20468;-52
2021/05/30 09:07:42;;;;;;;12.48;7.82;;;;;;;14.81;58.48;102714.06;5052266;28;20064;-53
2021/05/30 09:10:29;;;;;;;12.88;7.75;;;;;;;14.87;58.60;102715.81;5052481;28;20091;-52
2021/05/30 09:13:17;;;;;;;14.98;9.05;;;;;;;14.89;58.23;102713.66;5052281;28;20048;-52
2021/05/30 09:18:50;;;;;;;14.75;7.78;;;;;;;15.10;56.71;102720.28;5030053;28;20048;-51
2021/05/30 09:21:18;;;;;;;12.55;7.45;;;;;;;15.12;55.62;102706.28;5029784;28;20049;-49
2021/05/30 09:23:46;;;;;;;11.15;7.45;;;;;;;15.11;56.48;102710.94;5029813;28;20103;-53
2021/05/30 09:26:32;;;;;;;12.57;7.25;;;;;;;15.20;57.02;102708.63;5029995;28;20084;-51
2021/05/30 09:29:07;;;;;;;12.10;7.28;;;;;;;15.22;54.75;102711.91;5030140;28;20054;-54
2021/05/30 09:31:52;;;;;;;11.55;7.13;;;;;;;15.28;53.84;102708.16;5029943;28;20697;-51
2021/05/30 09:34:29;;;;;;;14.05;7.70;;;;;;;15.38;53.56;102704.72;5030014;28;20467;-52
2021/05/30 09:36:57;;;;;;;10.85;6.70;;;;;;;15.40;53.63;102704.50;5029892;28;20500;-54
2021/05/30 09:39:38;;;;;;;13.48;6.72;;;;;;;15.41;53.55;102703.38;5029318;28;20076;-50
2021/05/30 09:42:35;;;;;;;9.90;6.38;;;;;;;15.42;54.03;102705.06;5029537;28;20042;-50
2021/05/30 09:45:04;;;;;;;;;;;;;;;15.49;53.10;102698.28;5029966;28;20203;-49
2021/05/30 09:47:36;;;;;;;11.95;6.88;;;;;;;15.54;53.37;102694.78;5029897;28;19921;-49
2021/05/30 09:50:05;;;;;;;9.65;5.72;;;;;;;15.60;52.52;102701.16;5013064;28;20046;-51
2021/05/30 09:52:50;;;;;;;9.43;6.07;;;;;;;15.66;50.62;102698.22;5029688;28;20061;-50
2021/05/30 09:55:31;;;;;;;10.43;6.22;;;;;;;15.70;51.47;102696.63;5030468;28;20500;-49
2021/05/30 09:58:15;;;;;;;10.45;5.90;;;;;;;15.80;50.89;102695.09;5051611;28;20087;-49
2021/05/30 10:00:45;;;;;;;11.65;6.32;;;;;;;15.87;50.15;102690.22;5046827;28;20049;-52
2021/05/30 10:03:12;;;;;;;9.02;4.35;;;;;;;15.94;48.88;102685.38;5052071;28;20059;-49
2021/05/30 10:05:40;;;;;;;8.15;4.80;;;;;;;15.95;49.25;102678.78;5067409;28;20434;-49
2021/05/30 10:08:07;;;;;;;8.88;5.18;;;;;;;16.08;49.06;102681.13;5051795;28;20453;-49
2021/05/30 10:10:35;;;;;;;8.90;4.90;;;;;;;16.16;48.96;102677.91;5070917;28;20084;-52
2021/05/30 10:13:04;;;;;;;10.95;4.50;;;;;;;16.16;48.27;102683.41;5055447;28;20044;-53
2021/05/30 10:15:32;;;;;;;7.20;3.80;;;;;;;16.12;48.28;102679.50;5055228;28;20048;-49
2021/05/30 10:18:08;;;;;;;11.70;4.97;;;;;;;16.08;49.55;102675.63;5055668;28;20094;-52
2021/05/30 10:20:38;;;;;;;8.95;4.47;;;;;;;16.06;47.92;102683.28;5055478;28;20049;-51
2021/05/30 10:23:08;;;;;;;10.15;5.30;;;;;;;16.16;45.84;102680.66;5070640;28;20068;-49
2021/05/30 10:25:37;;;;;;;7.43;4.43;;;;;;;16.22;46.53;102677.97;5055457;28;20041;-48
2021/05/30 10:28:19;;;;;;;7.10;4.10;;;;;;;16.24;46.10;102670.28;5055511;28;20044;-49
2021/05/30 10:30:51;;;;;;;6.28;3.88;;;;;;;16.25;45.80;102672.75;5055229;28;20102;-50
2021/05/30 10:33:23;;;;;;;10.10;4.25;;;;;;;16.35;46.38;102683.00;5070277;28;20052;-51
2021/05/30 10:35:53;;;;;;;7.07;3.55;;;;;;;16.42;43.72;102674.56;5054976;28;20057;-49
2021/05/30 10:38:42;;;;;;;7.55;3.70;;;;;;;16.48;43.44;102674.34;5055051;28;20044;-51
2021/05/30 10:41:15;;;;;;;9.05;4.28;;;;;;;16.46;44.61;102676.53;5050439;28;20404;-49
2021/05/30 10:43:43;;;;;;;7.95;3.70;;;;;;;16.61;43.79;102673.88;5052426;28;20049;-55
2021/05/30 10:46:18;;;;;;;8.68;3.92;;;;;;;16.67;43.32;102665.66;5055184;28;20057;-52
2021/05/30 10:49:05;;;;;;;8.25;4.38;;;;;;;16.65;44.25;102670.63;5055026;28;20048;-49
2021/05/30 10:51:49;;;;;;;5.13;3.20;;;;;;;16.72;42.69;102671.22;5050416;28;20444;-50
2021/05/30 10:54:17;;;;;;;5.07;3.30;;;;;;;16.85;41.86;102662.53;5051666;28;20053;-49
2021/05/30 10:56:56;;;;;;;4.80;2.97;;;;;;;16.85;40.70;102654.25;5053640;28;20049;-48
2021/05/30 10:59:25;;;;;;;7.88;3.80;;;;;;;16.99;40.34;102651.88;5053967;28;20052;-53
2021/05/30 11:01:55;;;;;;;6.55;3.85;;;;;;;17.06;41.33;102657.97;5054643;28;20045;-50
2021/05/30 11:04:29;;;;;;;6.00;3.15;;;;;;;17.01;42.13;102650.50;5052432;28;20515;-51
2021/05/30 11:07:02;;;;;;;7.05;3.55;;;;;;;16.97;42.56;102645.81;5054867;28;20098;-49
2021/05/30 11:09:48;;;;;;;6.30;3.60;;;;;;;16.98;40.39;102652.97;5054268;28;20041;-50
2021/05/30 11:12:33;;;;;;;7.10;3.45;;;;;;;17.02;42.42;102638.38;5054147;28;20524;-51
2021/05/30 11:15:10;;;;;;;8.00;3.80;;;;;;;17.07;41.34;102643.09;5054238;28;20175;-49
2021/05/30 11:17:47;;;;;;;6.10;3.53;;;;;;;17.13;40.42;102641.22;5054687;28;20045;-50
2021/05/30 11:20:20;;;;;;;6.97;3.80;;;;;;;17.35;38.01;102635.53;5041037;28;20491;-50
2021/05/30 11:22:51;;;;;;;6.78;3.60;;;;;;;17.32;38.56;102625.88;5054476;28;20487;-50
2021/05/30 11:25:25;;;;;;;3.75;2.88;;;;;;;17.41;38.58;102624.25;5040967;28;20067;-50
2021/05/30 11:28:07;;;;;;;3.83;2.92;;;;;;;17.41;39.04;102621.50;5053746;28;20033;-49
2021/05/30 11:30:52;;;;;;;6.63;3.85;;;;;;;17.37;39.57;102617.63;5042512;28;20064;-51
2021/05/30 11:33:22;;;;;;;6.70;3.42;;;;;;;17.37;40.31;102616.81;5053981;28;20077;-52
2021/05/30 11:36:11;;;;;;;6.63;3.25;;;;;;;17.39;40.43;102609.06;5054058;28;20487;-49